Flight Track Log - Related Links

Times and Time Zones

All times are in EDT time to prevent confusion due to time zone crossing. See the UCA5001 flight status page for this flight to view local times or setup timezone preferences in your user account.

Time Position Orientation Groundspeed Altitude Reporting Facility
EDT Latitude Longitude Course Direction KTS MPH feet Rate Location/Type
Sun 03:27:29 PM 38.9167 -77.5333 247° West 142 163 3,000  Level Potomac TRACON
Sun 03:28:29 PM 38.9000 -77.5833 247° West 178 205 4,000 446 Climbing Potomac TRACON
Sun 03:29:30 PM 38.8667 -77.6500 237° Southwest 230 265 3,900  Descending Potomac TRACON
Sun 03:30:24 PM 38.8333 -77.7167 237° Southwest 224 258 4,000 950 Climbing Potomac TRACON
Sun 03:31:30 PM 38.7833 -77.7333 195° South 218 251 5,800 1,524 Climbing Potomac TRACON
Sun 03:32:30 PM 38.7256 -77.7364 182° South 225 259 7,200 1,576 Climbing Washington Center
Sun 03:33:28 PM 38.6628 -77.7425 184° South 220 253 8,900 1,412 Climbing Washington Center
Sun 03:34:29 PM 38.6328 -77.7922 232° Southwest 179 206 10,000 1,131 Climbing Washington Center
Sun 03:35:30 PM 38.6067 -77.8500 240° Southwest 179 206 11,200 1,240 Climbing Washington Center
Sun 03:36:30 PM 38.5783 -77.9075 238° Southwest 191 220 12,500 1,333 Climbing Washington Center
Sun 03:37:27 PM 38.5522 -77.9625 239° Southwest 191 220 13,800 763 Climbing Washington Center
Sun 03:38:28 PM 38.5242 -78.0172 237° Southwest 185 213 14,000 98 Climbing Washington Center
Sun 03:39:29 PM 38.4914 -78.0825 237° Southwest 199 229 14,000  Level Washington Center
Sun 03:40:30 PM 38.4567 -78.1475 236° Southwest 213 245 14,000  Level Washington Center
Sun 03:41:30 PM 38.4242 -78.2128 238° Southwest 219 252 14,000  Level Washington Center
Sun 03:42:28 PM 38.3914 -78.2806 238° Southwest 225 259 14,000  Level Washington Center
Sun 03:43:29 PM 38.3564 -78.3453 235° Southwest 225 259 14,000  Level Washington Center
Sun 03:44:30 PM 38.3217 -78.4103 236° Southwest 230 265 14,000  Level Washington Center
Sun 03:45:28 PM 38.2847 -78.4725 233° Southwest 230 265 14,000  Level Washington Center
Sun 03:46:29 PM 38.2497 -78.5372 235° Southwest 224 258 14,000  Level Washington Center
Sun 03:47:30 PM 38.2150 -78.5914 231° Southwest 224 258 14,000  Level Washington Center
Sun 03:48:30 PM 38.1781 -78.6531 233° Southwest 224 258 14,000 -50 Level Washington Center
Sun 03:49:29 PM 38.1408 -78.7178 234° Southwest 224 258 13,900 -50 Descending Washington Center
Sun 03:50:30 PM 38.0972 -78.7897 232° Southwest 224 258 13,900  Level Washington Center
Sun 03:51:27 PM 38.0603 -78.8514 233° Southwest 224 258 13,900  Level Washington Center
Sun 03:52:28 PM 38.0208 -78.9156 232° Southwest 224 258 13,900  Level Washington Center
Sun 03:53:29 PM 37.9836 -78.9772 233° Southwest 229 264 13,900  Level Washington Center
Sun 03:54:29 PM 37.9486 -79.0336 232° Southwest 229 264 13,900  Level Washington Center
Sun 03:55:30 PM 37.9094 -79.0975 232° Southwest 229 264 13,900  Level Washington Center
Sun 03:56:30 PM 37.8678 -79.1614 230° Southwest 234 269 13,900 51 Level Washington Center
Sun 03:57:28 PM 37.8283 -79.2228 231° Southwest 234 269 14,000 50 Climbing Washington Center
Sun 03:58:29 PM 37.7825 -79.2939 231° Southwest 234 269 14,000 -496 Level Washington Center
Sun 03:59:29 PM 37.7408 -79.3578 230° Southwest 234 269 13,000 -1,240 Descending Washington Center
Sun 04:00:30 PM 37.6906 -79.4261 227° Southwest 252 290 11,500 -1,388 Descending Washington Center
Sun 04:01:30 PM 37.6556 -79.4844 233° Southwest 252 290 10,200 -1,385 Descending Washington Center
Sun 04:02:27 PM 37.6094 -79.5531 230° Southwest 246 283 8,800 -1,271 Descending Washington Center
Sun 04:03:28 PM 37.5719 -79.6114 231° Southwest 246 283 7,700 -1,041 Descending Washington Center
Sun 04:04:28 PM 37.5097 -79.6603 212° Southwest 241 277 6,700 -893 Descending Washington Center
Sun 04:05:29 PM 37.4583 -79.6994 211° Southwest 246 283 5,900 -645 Descending Washington Center
Sun 04:06:29 PM 37.3983 -79.7458 212° Southwest 246 283 5,400 -645 Descending Washington Center
Sun 04:07:30 PM 37.3447 -79.7928 215° Southwest 246 283 4,600 -756 Descending Washington Center
Sun 04:08:28 PM 37.3011 -79.8400 221° Southwest 232 267 3,900 -724 Descending Washington Center
Sun 04:10:00 PM 37.3214 -79.9528 218° Southwest  Level Estimated
Sun 04:17:00 PM 37.3167 -79.9667 218° Southwest  Level FlightAware Approximate

Login

Don't have an account? Register now (free) for customized features, flight alerts, and more!